Aviation Digital Data Service (ADDS)

Output produced by METARs form (1026 UTC 24 February 2017)
found at http://aviationweather.gov/adds/metars/
 
KHLG 240537Z 2406/2506 17005KT P6SM BKN090 
     FM241500 19012G20KT P6SM SCT050